createdAt,value
2023-02-11T00:04:11.167Z,2
2023-02-11T00:14:12.585Z,1.8
2023-02-11T00:24:14.059Z,2.4
2023-02-11T00:34:15.525Z,1.5
2023-02-11T00:44:17.042Z,4.8
2023-02-11T00:54:18.336Z,1.6
2023-02-11T01:04:19.754Z,2
2023-02-11T01:14:21.250Z,0.9
2023-02-11T01:24:22.684Z,2.4
2023-02-11T01:34:24.152Z,0.8
2023-02-11T01:44:25.481Z,1.1
2023-02-11T01:54:26.859Z,1.7
2023-02-11T02:04:28.251Z,1
2023-02-11T02:14:29.569Z,0.5
2023-02-11T02:24:30.916Z,0.8
2023-02-11T02:34:32.332Z,0.8
2023-02-11T02:44:33.680Z,1.2
2023-02-11T02:54:34.951Z,0.5
2023-02-11T03:04:36.261Z,1.7
2023-02-11T03:14:37.578Z,0.9
2023-02-11T03:24:38.884Z,3.5
2023-02-11T03:34:40.195Z,1.7
2023-02-11T03:44:41.509Z,1.2
2023-02-11T03:54:42.799Z,0.9
2023-02-11T04:04:44.090Z,1.1
2023-02-11T04:14:45.413Z,0.8
2023-02-11T04:24:46.689Z,0.9
2023-02-11T04:34:47.879Z,1.5
2023-02-11T04:44:49.128Z,1.4
2023-02-11T04:54:50.307Z,1.3
2023-02-11T05:04:51.454Z,2.5
2023-02-11T05:14:52.644Z,2
2023-02-11T05:24:53.779Z,1.6
2023-02-11T05:34:54.901Z,2.2
2023-02-11T05:44:56.035Z,1
2023-02-11T05:54:57.117Z,2
2023-02-11T06:04:58.278Z,1.7
2023-02-11T06:14:59.398Z,1.4
2023-02-11T06:25:02.138Z,2.8
2023-02-11T06:35:01.547Z,2.3
2023-02-11T06:45:02.630Z,2.7
2023-02-11T06:55:03.592Z,1.4
2023-02-11T07:05:04.538Z,2.6
2023-02-11T07:15:05.465Z,1.4
2023-02-11T07:25:06.493Z,2.4
2023-02-11T07:35:07.537Z,1.3
2023-02-11T07:45:08.549Z,2.2
2023-02-11T07:55:09.680Z,1.4
2023-02-11T08:05:10.737Z,2.2
2023-02-11T08:15:11.848Z,2.1
2023-02-11T08:25:12.902Z,1.5
2023-02-11T08:35:13.915Z,1.4
2023-02-11T08:45:15.005Z,2.2
2023-02-11T08:55:15.910Z,1.7
2023-02-11T09:05:17.137Z,2.2
2023-02-11T09:15:17.833Z,1.2
2023-02-11T09:25:18.803Z,1.1
2023-02-11T09:35:19.796Z,1.4
2023-02-11T09:45:20.709Z,1.9
2023-02-11T09:55:21.699Z,1.4
2023-02-11T10:05:22.698Z,1.6
2023-02-11T10:15:23.692Z,2.3
2023-02-11T10:25:24.668Z,2.3
2023-02-11T10:35:25.657Z,1.5
2023-02-11T10:45:26.630Z,2.7
2023-02-11T10:55:27.605Z,1.8
2023-02-11T11:05:28.615Z,1.9
2023-02-11T11:15:29.520Z,2.3
2023-02-11T11:25:30.473Z,2
2023-02-11T11:35:31.395Z,1.3
2023-02-11T11:45:32.366Z,2.4
2023-02-11T11:55:33.330Z,1.7
2023-02-11T12:05:34.245Z,1.6
2023-02-11T12:15:35.185Z,1.6
2023-02-11T12:25:36.189Z,2.2
2023-02-11T12:35:37.180Z,2.2
2023-02-11T12:45:38.241Z,2
2023-02-11T12:55:39.149Z,1.4
2023-02-11T13:05:40.231Z,1.9
2023-02-11T13:15:41.175Z,2.3
2023-02-11T13:25:42.256Z,1.6
2023-02-11T13:35:45.708Z,1.5
2023-02-11T13:45:44.331Z,1.9
2023-02-11T13:55:45.316Z,1.3
2023-02-11T14:05:46.396Z,1.2
2023-02-11T14:15:48.448Z,1.3
2023-02-11T14:25:48.487Z,1.3
2023-02-11T14:35:49.619Z,1.7
2023-02-11T14:45:50.772Z,1.9
2023-02-11T14:55:51.706Z,2.9
2023-02-11T15:05:52.858Z,5
2023-02-11T15:15:54.033Z,3.7
2023-02-11T15:25:55.030Z,4.2
2023-02-11T15:35:56.169Z,5.1
2023-02-11T15:45:57.197Z,4.8
2023-02-11T15:55:58.185Z,7.2
2023-02-11T16:05:59.360Z,5.6
2023-02-11T16:16:01.865Z,5
2023-02-11T16:26:01.518Z,4.5
2023-02-11T16:36:02.621Z,5
2023-02-11T16:46:03.742Z,6.2
2023-02-11T16:56:04.984Z,5
2023-02-11T17:06:06.036Z,6.4
2023-02-11T17:16:07.167Z,6.1
2023-02-11T17:26:08.214Z,6
2023-02-11T17:36:09.335Z,5.2
2023-02-11T17:46:10.571Z,6.1
2023-02-11T17:56:11.621Z,5.2
2023-02-11T18:06:12.871Z,5.1
2023-02-11T18:16:16.528Z,6.7
2023-02-11T18:26:15.096Z,5.3
2023-02-11T18:36:16.280Z,5.5
2023-02-11T18:46:17.551Z,5.9
2023-02-11T18:56:18.643Z,5.5
2023-02-11T19:06:19.738Z,5.8
2023-02-11T19:16:20.892Z,5.6
2023-02-11T19:23:56.226Z,5.6
2023-02-11T19:26:22.135Z,5
2023-02-11T19:36:23.457Z,5.3
2023-02-11T19:40:50.532Z,5.3
2023-02-11T19:46:24.635Z,4.4
2023-02-11T19:56:27.285Z,5.8
2023-02-11T20:06:26.954Z,8.2
2023-02-11T20:16:40.937Z,5.9
2023-02-11T20:26:29.498Z,7.6
2023-02-11T20:31:21.136Z,7.6
2023-02-11T20:36:30.771Z,5.1
2023-02-11T20:46:32.037Z,3.8
2023-02-11T20:56:33.147Z,5.5
2023-02-11T21:06:34.239Z,5.2
2023-02-11T21:16:35.418Z,6.2
2023-02-11T21:26:36.547Z,5.1
2023-02-11T21:36:30.026Z,5.1
2023-02-11T21:46:38.883Z,5.7
2023-02-11T21:56:39.997Z,5.8
2023-02-11T22:06:43.093Z,6.3
2023-02-11T22:09:26.168Z,6.3
2023-02-11T22:16:42.227Z,6.4
2023-02-11T22:26:44.599Z,4.8
2023-02-11T22:36:44.222Z,5.1
2023-02-11T22:46:45.175Z,6.5
2023-02-11T22:56:46.110Z,6.1
2023-02-11T23:06:47.034Z,5.7
2023-02-11T23:16:48.037Z,4.5
2023-02-11T23:26:49.015Z,5.2
2023-02-11T23:36:49.926Z,5.1
2023-02-11T23:46:50.858Z,6.7
2023-02-11T23:56:51.791Z,5.7
